createdAt,value
2023-04-27T00:00:40.286Z,101216.31
2023-04-27T00:03:07.443Z,101211.22
2023-04-27T00:05:39.401Z,101211.56
2023-04-27T00:08:07.060Z,101209.38
2023-04-27T00:10:33.972Z,101211.81
2023-04-27T00:13:01.643Z,101221.56
2023-04-27T00:15:28.870Z,101216.28
2023-04-27T00:17:55.494Z,101213.72
2023-04-27T00:20:21.987Z,101223.31
2023-04-27T00:22:48.395Z,101212.75
2023-04-27T00:25:14.881Z,101220.25
2023-04-27T00:27:41.257Z,101220.59
2023-04-27T00:30:08.323Z,101223.69
2023-04-27T00:32:34.770Z,101223.03
2023-04-27T00:35:01.221Z,101225.09
2023-04-27T00:37:27.640Z,101219.97
2023-04-27T00:39:54.031Z,101229.19
2023-04-27T00:42:20.551Z,101232.78
2023-04-27T00:44:47.140Z,101225.44
2023-04-27T00:47:14.142Z,101224.41
2023-04-27T00:49:41.044Z,101225.44
2023-04-27T00:52:07.817Z,101222.38
2023-04-27T00:54:34.601Z,101224.09
2023-04-27T00:57:01.199Z,101230.41
2023-04-27T00:59:29.038Z,101227.84
2023-04-27T01:01:56.299Z,101233.66
2023-04-27T01:04:23.315Z,101224.59
2023-04-27T01:06:49.977Z,101232.81
2023-04-27T01:09:19.498Z,101231.13
2023-04-27T01:11:46.936Z,101228.56
2023-04-27T01:14:13.364Z,101227.88
2023-04-27T01:16:40.592Z,101225.16
2023-04-27T01:19:08.951Z,101229.94
2023-04-27T01:21:35.493Z,101232.16
2023-04-27T01:24:01.911Z,101231.31
2023-04-27T01:26:28.289Z,101230.81
2023-04-27T01:28:54.672Z,101232.00
2023-04-27T01:31:21.275Z,101228.59
2023-04-27T01:33:47.744Z,101231.50
2023-04-27T01:36:14.203Z,101226.03
2023-04-27T01:38:41.069Z,101230.78
2023-04-27T01:41:09.158Z,101225.50
2023-04-27T01:43:37.064Z,101226.53
2023-04-27T01:46:13.892Z,101227.53
2023-04-27T01:48:40.998Z,101226.19
2023-04-27T01:51:07.528Z,101226.19
2023-04-27T01:53:34.297Z,101232.00
2023-04-27T01:56:01.198Z,101230.66
2023-04-27T01:58:28.052Z,101235.59
2023-04-27T02:00:55.061Z,101248.94
2023-04-27T02:03:22.006Z,101246.03
2023-04-27T02:05:48.627Z,101249.09
2023-04-27T02:08:15.057Z,101253.19
2023-04-27T02:10:41.532Z,101254.25
2023-04-27T02:13:08.221Z,101262.44
2023-04-27T02:15:35.455Z,101261.38
2023-04-27T02:18:03.664Z,101256.78
2023-04-27T02:20:31.304Z,101257.81
2023-04-27T02:22:57.849Z,101255.06
2023-04-27T02:25:24.317Z,101255.41
2023-04-27T02:27:50.985Z,101251.00
2023-04-27T02:30:17.835Z,101253.91
2023-04-27T02:32:44.897Z,101238.72
2023-04-27T02:35:11.422Z,101235.78
2023-04-27T02:37:37.961Z,101241.44
2023-04-27T02:40:07.603Z,101246.91
2023-04-27T02:42:34.105Z,101239.88
2023-04-27T02:45:00.549Z,101248.28
2023-04-27T02:47:27.347Z,101249.44
2023-04-27T02:49:53.731Z,101249.78
2023-04-27T02:52:20.550Z,101240.94
2023-04-27T02:54:47.037Z,101248.75
2023-04-27T02:57:13.404Z,101251.84
2023-04-27T02:59:39.814Z,101249.81
2023-04-27T03:02:06.252Z,101239.38
2023-04-27T03:04:32.666Z,101237.50
2023-04-27T03:06:59.201Z,101235.47
2023-04-27T03:09:25.840Z,101236.09
2023-04-27T03:11:52.801Z,101240.19
2023-04-27T03:14:19.242Z,101234.41
2023-04-27T03:16:45.745Z,101225.88
2023-04-27T03:19:12.532Z,101226.88
2023-04-27T03:21:39.424Z,101240.69
2023-04-27T03:24:06.048Z,101241.72
2023-04-27T03:26:32.513Z,101234.53
2023-04-27T03:28:58.976Z,101243.56
2023-04-27T03:31:25.509Z,101234.38
2023-04-27T03:33:52.020Z,101241.22
2023-04-27T03:36:18.458Z,101237.44
2023-04-27T03:38:44.878Z,101247.34
2023-04-27T03:41:11.441Z,101246.16
2023-04-27T03:43:37.849Z,101249.41
2023-04-27T03:46:04.438Z,101243.97
2023-04-27T03:48:30.949Z,101255.53
2023-04-27T03:50:57.488Z,101255.69
2023-04-27T03:53:23.955Z,101256.56
2023-04-27T03:55:50.686Z,101261.16
2023-04-27T03:58:17.922Z,101266.47
2023-04-27T04:00:44.377Z,101264.59
2023-04-27T04:03:10.976Z,101266.31
2023-04-27T04:05:37.437Z,101262.72
2023-04-27T04:08:04.054Z,101261.66
2023-04-27T04:10:30.553Z,101263.38
2023-04-27T04:12:57.005Z,101261.38
2023-04-27T04:15:23.419Z,101257.59
2023-04-27T04:17:49.909Z,101256.72
2023-04-27T04:20:16.737Z,101260.16
2023-04-27T04:22:44.080Z,101260.69
2023-04-27T04:25:10.638Z,101263.25
2023-04-27T04:27:37.564Z,101262.91
2023-04-27T04:30:06.124Z,101262.41
2023-04-27T04:32:33.715Z,101256.97
2023-04-27T04:35:01.560Z,101265.66
2023-04-27T04:37:28.352Z,101266.47
2023-04-27T04:39:54.804Z,101264.47
2023-04-27T04:42:21.423Z,101268.72
2023-04-27T04:44:47.841Z,101276.75
2023-04-27T04:47:14.210Z,101282.22
2023-04-27T04:49:40.673Z,101282.22
2023-04-27T04:52:07.241Z,101277.25
2023-04-27T04:54:33.632Z,101290.72
2023-04-27T04:57:00.973Z,101282.22
2023-04-27T04:59:27.384Z,101286.63
2023-04-27T05:01:56.548Z,101290.06
2023-04-27T05:04:23.297Z,101280.50
2023-04-27T05:06:49.844Z,101291.94
2023-04-27T05:09:16.258Z,101293.31
2023-04-27T05:11:42.648Z,101286.66
2023-04-27T05:14:09.155Z,101284.59
2023-04-27T05:16:35.692Z,101291.78
2023-04-27T05:19:02.237Z,101286.31
2023-04-27T05:21:28.695Z,101293.28
2023-04-27T05:23:55.226Z,101285.81
2023-04-27T05:26:21.701Z,101294.50
2023-04-27T05:28:49.356Z,101295.19
2023-04-27T05:31:15.928Z,101297.59
2023-04-27T05:33:42.471Z,101299.13
2023-04-27T05:36:09.431Z,101306.09
2023-04-27T05:38:39.962Z,101304.75
2023-04-27T05:41:06.479Z,101307.81
2023-04-27T05:43:34.967Z,101311.91
2023-04-27T05:46:01.518Z,101318.75
2023-04-27T05:48:28.024Z,101314.47
2023-04-27T05:51:04.339Z,101322.84
2023-04-27T05:53:32.429Z,101318.75
2023-04-27T05:55:59.347Z,101322.69
2023-04-27T05:58:25.913Z,101328.31
2023-04-27T06:00:56.552Z,101321.78
2023-04-27T06:03:23.230Z,101317.34
2023-04-27T06:05:56.265Z,101320.03
2023-04-27T06:08:24.542Z,101319.34
2023-04-27T06:10:51.404Z,101326.69
2023-04-27T06:13:18.121Z,101327.66
2023-04-27T06:15:44.755Z,101318.59
2023-04-27T06:18:11.295Z,101322.31
2023-04-27T06:20:38.162Z,101326.22
2023-04-27T06:23:04.620Z,101331.16
2023-04-27T06:25:31.416Z,101325.31
2023-04-27T06:27:58.386Z,101328.38
2023-04-27T06:30:25.097Z,101326.63
2023-04-27T06:32:52.085Z,101329.13
2023-04-27T06:35:18.783Z,101328.44
2023-04-27T06:37:45.744Z,101334.03
2023-04-27T06:40:12.379Z,101331.25
2023-04-27T06:42:38.856Z,101334.59
2023-04-27T06:45:07.213Z,101325.31
2023-04-27T06:47:33.783Z,101327.97
2023-04-27T06:50:00.527Z,101322.25
2023-04-27T06:52:27.225Z,101324.94
2023-04-27T06:54:54.110Z,101325.53
2023-04-27T06:57:20.471Z,101323.56
2023-04-27T06:59:46.865Z,101324.16
2023-04-27T07:02:13.356Z,101315.50
2023-04-27T07:04:39.983Z,101307.19
2023-04-27T07:07:06.423Z,101304.31
2023-04-27T07:09:33.130Z,101293.31
2023-04-27T07:12:01.184Z,101293.03
2023-04-27T07:14:27.564Z,101293.88
2023-04-27T07:16:53.970Z,101294.53
2023-04-27T07:19:20.434Z,101297.66
2023-04-27T07:21:46.821Z,101296.88
2023-04-27T07:24:13.298Z,101293.59
2023-04-27T07:26:39.722Z,101296.41
2023-04-27T07:29:19.010Z,101292.69
2023-04-27T07:31:52.889Z,101306.13
2023-04-27T07:34:19.435Z,101301.78
2023-04-27T07:36:45.863Z,101304.59
2023-04-27T07:39:12.788Z,101294.75
2023-04-27T07:41:39.445Z,101290.16
2023-04-27T07:44:05.870Z,101280.75
2023-04-27T07:46:32.813Z,101283.38
2023-04-27T07:49:00.414Z,101281.75
2023-04-27T07:51:28.687Z,101285.19
2023-04-27T07:53:55.646Z,101283.00
2023-04-27T07:56:22.255Z,101278.00
2023-04-27T07:58:48.737Z,101277.88
2023-04-27T08:01:15.224Z,101281.75
2023-04-27T08:03:41.983Z,101278.47
2023-04-27T08:06:08.899Z,101276.88
2023-04-27T08:08:35.717Z,101268.28
2023-04-27T08:11:02.210Z,101267.53
2023-04-27T08:13:28.745Z,101262.50
2023-04-27T08:15:59.195Z,101262.34
2023-04-27T08:18:27.136Z,101253.50
2023-04-27T08:20:53.956Z,101265.19
2023-04-27T08:23:20.600Z,101255.28
2023-04-27T08:25:47.525Z,101264.00
2023-04-27T08:28:15.152Z,101265.50
2023-04-27T08:30:44.897Z,101265.13
2023-04-27T08:33:11.377Z,101254.78
2023-04-27T08:35:38.122Z,101255.00
2023-04-27T08:38:04.613Z,101240.19
2023-04-27T08:40:31.113Z,101241.47
2023-04-27T08:42:59.377Z,101246.13
2023-04-27T08:45:27.173Z,101233.00
2023-04-27T08:47:53.976Z,101232.56
2023-04-27T08:50:20.572Z,101222.59
2023-04-27T08:52:48.122Z,101225.75
2023-04-27T08:55:16.685Z,101222.75
2023-04-27T08:57:54.555Z,101222.97
2023-04-27T09:00:21.197Z,101217.22
2023-04-27T09:02:51.981Z,101221.22
2023-04-27T09:05:24.451Z,101223.97
2023-04-27T09:08:05.173Z,101215.03
2023-04-27T09:10:44.377Z,101220.31
2023-04-27T09:13:10.766Z,101216.25
2023-04-27T09:15:47.758Z,101203.88
2023-04-27T09:18:17.436Z,101213.63
2023-04-27T09:20:53.571Z,101208.25
2023-04-27T09:23:27.997Z,101212.03
2023-04-27T09:25:59.372Z,101208.81
2023-04-27T09:28:30.902Z,101201.16
2023-04-27T09:30:59.454Z,101191.28
2023-04-27T09:33:31.554Z,101193.13
2023-04-27T09:36:06.013Z,101188.94
2023-04-27T09:38:33.318Z,101194.78
2023-04-27T09:41:00.312Z,101185.72
2023-04-27T09:43:28.704Z,101183.28
2023-04-27T09:45:56.197Z,101188.47
2023-04-27T09:48:23.768Z,101172.13
2023-04-27T09:50:51.690Z,101162.03
2023-04-27T09:53:26.291Z,101166.50
2023-04-27T09:55:55.646Z,101160.19
2023-04-27T09:58:43.513Z,101163.88
2023-04-27T10:01:18.140Z,101159.09
2023-04-27T10:04:13.263Z,101161.38
2023-04-27T10:07:04.866Z,101163.03
2023-04-27T10:09:37.030Z,101163.19
2023-04-27T10:12:26.283Z,101159.44
2023-04-27T10:14:58.335Z,101156.09
2023-04-27T10:17:36.487Z,101148.63
2023-04-27T10:20:08.902Z,101148.44
2023-04-27T10:22:43.525Z,101157.13
2023-04-27T10:25:25.611Z,101160.34
2023-04-27T10:27:56.542Z,101145.78
2023-04-27T10:30:25.888Z,101143.94
2023-04-27T10:33:00.361Z,101145.13
2023-04-27T10:35:37.677Z,101139.09
2023-04-27T10:38:17.354Z,101148.81
2023-04-27T10:41:01.868Z,101139.31
2023-04-27T10:43:30.644Z,101129.19
2023-04-27T10:46:16.324Z,101127.00
2023-04-27T10:48:44.355Z,101129.22
2023-04-27T10:51:16.507Z,101120.13
2023-04-27T10:53:43.015Z,101117.44
2023-04-27T10:56:10.072Z,101119.28
2023-04-27T11:01:08.134Z,101106.47
2023-04-27T11:03:35.178Z,101102.78
2023-04-27T11:06:05.910Z,101084.25
2023-04-27T11:08:36.619Z,101096.06
2023-04-27T11:11:03.788Z,101090.59
2023-04-27T11:13:30.971Z,101080.84
2023-04-27T11:15:59.066Z,101083.50
2023-04-27T11:18:27.654Z,101079.13
2023-04-27T11:21:05.841Z,101084.13
2023-04-27T11:23:39.299Z,101082.66
2023-04-27T11:26:17.026Z,101081.59
2023-04-27T11:29:01.558Z,101081.34
2023-04-27T11:31:38.199Z,101072.66
2023-04-27T11:34:04.725Z,101076.00
2023-04-27T11:36:31.713Z,101076.53
2023-04-27T11:39:00.039Z,101074.66
2023-04-27T11:41:37.110Z,101075.16
2023-04-27T11:44:08.236Z,101067.13
2023-04-27T11:46:38.894Z,101073.66
2023-04-27T11:49:06.647Z,101073.22
2023-04-27T11:51:33.465Z,101057.78
2023-04-27T11:54:04.745Z,101063.69
2023-04-27T11:56:39.401Z,101057.47
2023-04-27T11:59:06.766Z,101059.25
2023-04-27T12:01:37.989Z,101054.28
2023-04-27T12:04:05.341Z,101045.38
2023-04-27T12:06:33.736Z,101057.22
2023-04-27T12:09:00.903Z,101050.91
2023-04-27T12:11:30.749Z,101042.06
2023-04-27T12:13:57.530Z,101040.59
2023-04-27T12:16:24.123Z,101043.13
2023-04-27T12:18:50.811Z,101039.28
2023-04-27T12:21:17.988Z,101037.81
2023-04-27T12:23:44.639Z,101035.38
2023-04-27T12:26:14.261Z,101030.94
2023-04-27T12:28:41.646Z,101020.47
2023-04-27T12:31:08.531Z,101018.88
2023-04-27T12:33:35.220Z,101016.81
2023-04-27T12:36:01.802Z,101016.09
2023-04-27T12:38:28.245Z,101004.97
2023-04-27T12:40:54.857Z,100999.75
2023-04-27T12:43:21.260Z,100995.38
2023-04-27T12:45:47.692Z,100995.19
2023-04-27T12:48:16.965Z,101003.56
2023-04-27T12:50:44.211Z,101012.22
2023-04-27T12:53:10.648Z,101012.81
2023-04-27T12:55:37.428Z,101019.56
2023-04-27T12:58:04.854Z,101011.78
2023-04-27T13:00:31.411Z,101018.50
2023-04-27T13:02:58.711Z,101005.06
2023-04-27T13:05:26.420Z,101001.69
2023-04-27T13:07:52.977Z,101001.94
2023-04-27T13:10:19.392Z,101002.50
2023-04-27T13:12:45.935Z,100994.56
2023-04-27T13:15:12.360Z,100990.31
2023-04-27T13:17:40.270Z,100993.38
2023-04-27T13:20:09.017Z,100990.84
2023-04-27T13:22:35.676Z,100986.41
2023-04-27T13:25:02.191Z,100996.78
2023-04-27T13:27:28.673Z,100994.22
2023-04-27T13:29:55.889Z,100990.75
2023-04-27T13:32:22.675Z,100987.91
2023-04-27T13:34:50.266Z,100999.97
2023-04-27T13:37:17.413Z,100994.03
2023-04-27T13:39:44.115Z,100985.06
2023-04-27T13:42:10.851Z,100983.66
2023-04-27T13:47:08.047Z,100970.69
2023-04-27T13:49:34.583Z,100967.22
2023-04-27T13:52:01.124Z,100970.75
2023-04-27T13:54:28.722Z,100973.84
2023-04-27T13:56:55.124Z,100967.97
2023-04-27T13:59:21.745Z,100963.13
2023-04-27T14:01:48.181Z,100957.72
2023-04-27T14:04:14.650Z,100953.97
2023-04-27T14:06:41.588Z,100949.63
2023-04-27T14:09:09.217Z,100942.97
2023-04-27T14:11:42.299Z,100940.88
2023-04-27T14:14:15.200Z,100939.63
2023-04-27T14:16:41.697Z,100938.78
2023-04-27T14:19:08.847Z,100940.00
2023-04-27T14:21:35.240Z,100944.13
2023-04-27T14:24:01.627Z,100944.50
2023-04-27T14:26:28.047Z,100939.03
2023-04-27T14:28:58.469Z,100937.59
2023-04-27T14:31:26.515Z,100933.06
2023-04-27T14:33:53.029Z,100933.28
2023-04-27T14:36:19.588Z,100926.91
2023-04-27T14:38:46.354Z,100920.78
2023-04-27T14:41:12.970Z,100925.31
2023-04-27T14:43:39.366Z,100928.22
2023-04-27T14:46:19.751Z,100923.25
2023-04-27T14:48:47.406Z,100913.50
2023-04-27T14:51:14.691Z,100905.16
2023-04-27T14:53:41.253Z,100895.19
2023-04-27T14:56:07.876Z,100889.34
2023-04-27T14:58:34.630Z,100890.72
2023-04-27T15:01:01.624Z,100891.53
2023-04-27T15:03:28.825Z,100887.25
2023-04-27T15:05:55.419Z,100887.75
2023-04-27T15:08:22.272Z,100884.53
2023-04-27T15:10:48.741Z,100878.25
2023-04-27T15:13:15.167Z,100870.41
2023-04-27T15:15:41.694Z,100874.84
2023-04-27T15:18:08.146Z,100858.06
2023-04-27T15:20:34.576Z,100858.59
2023-04-27T15:23:01.019Z,100856.69
2023-04-27T15:25:27.653Z,100857.34
2023-04-27T15:27:54.097Z,100851.22
2023-04-27T15:30:20.670Z,100853.59
2023-04-27T15:32:47.857Z,100853.03
2023-04-27T15:35:14.303Z,100847.91
2023-04-27T15:37:41.021Z,100847.72
2023-04-27T15:40:08.788Z,100849.41
2023-04-27T15:42:35.361Z,100851.94
2023-04-27T15:45:02.002Z,100855.75
2023-04-27T15:47:28.398Z,100856.75
2023-04-27T15:49:57.842Z,100852.88
2023-04-27T15:52:26.515Z,100844.28
2023-04-27T15:54:52.928Z,100841.25
2023-04-27T15:57:19.331Z,100833.94
2023-04-27T15:59:45.975Z,100832.28
2023-04-27T16:02:13.263Z,100831.66
2023-04-27T16:04:39.777Z,100829.50
2023-04-27T16:07:09.923Z,100827.31
2023-04-27T16:09:36.765Z,100831.91
2023-04-27T16:12:03.836Z,100841.06
2023-04-27T16:14:30.425Z,100833.75
2023-04-27T16:17:00.822Z,100830.44
2023-04-27T16:19:27.496Z,100828.88
2023-04-27T16:21:54.158Z,100825.94
2023-04-27T16:24:20.776Z,100827.44
2023-04-27T16:26:47.620Z,100821.31
2023-04-27T16:29:14.237Z,100811.84
2023-04-27T16:31:42.650Z,100814.97
2023-04-27T16:34:09.158Z,100816.34
2023-04-27T16:36:35.560Z,100816.38
2023-04-27T16:39:03.412Z,100826.22
2023-04-27T16:41:29.875Z,100821.47
2023-04-27T16:43:56.354Z,100821.78
2023-04-27T16:46:22.832Z,100817.53
2023-04-27T16:48:49.293Z,100820.88
2023-04-27T16:51:15.860Z,100818.91
2023-04-27T16:53:42.207Z,100818.59
2023-04-27T16:56:10.022Z,100824.66
2023-04-27T16:58:36.527Z,100805.03
2023-04-27T17:01:02.980Z,100816.97
2023-04-27T17:03:30.018Z,100818.88
2023-04-27T17:05:56.595Z,100818.25
2023-04-27T17:08:23.045Z,100813.72
2023-04-27T17:10:49.431Z,100815.66
2023-04-27T17:13:17.328Z,100803.59
2023-04-27T17:15:43.863Z,100804.66
2023-04-27T17:18:10.485Z,100810.22
2023-04-27T17:20:38.362Z,100803.22
2023-04-27T17:23:07.000Z,100805.00
2023-04-27T17:25:33.437Z,100803.91
2023-04-27T17:28:01.456Z,100806.09
2023-04-27T17:30:28.364Z,100803.00
2023-04-27T17:32:54.830Z,100808.53
2023-04-27T17:35:21.597Z,100807.13
2023-04-27T17:37:48.084Z,100798.72
2023-04-27T17:40:16.341Z,100797.59
2023-04-27T17:42:42.764Z,100789.72
2023-04-27T17:45:09.619Z,100780.81
2023-04-27T17:47:36.430Z,100779.13
2023-04-27T17:50:02.884Z,100776.31
2023-04-27T17:52:29.356Z,100777.34
2023-04-27T17:54:55.971Z,100776.19
2023-04-27T17:57:22.719Z,100780.63
2023-04-27T17:59:50.308Z,100785.56
2023-04-27T18:02:17.333Z,100788.84
2023-04-27T18:04:43.985Z,100782.63
2023-04-27T18:07:10.399Z,100782.53
2023-04-27T18:09:36.854Z,100782.22
2023-04-27T18:12:04.157Z,100789.66
2023-04-27T18:14:30.555Z,100781.75
2023-04-27T18:16:57.055Z,100789.47
2023-04-27T18:19:23.602Z,100783.28
2023-04-27T18:21:50.078Z,100781.50
2023-04-27T18:24:16.480Z,100784.75
2023-04-27T18:26:42.862Z,100781.91
2023-04-27T18:29:09.221Z,100790.19
2023-04-27T18:31:36.215Z,100780.34
2023-04-27T18:34:02.617Z,100789.47
2023-04-27T18:36:29.082Z,100789.41
2023-04-27T18:38:57.914Z,100796.81
2023-04-27T18:41:24.742Z,100799.78
2023-04-27T18:43:51.430Z,100807.16
2023-04-27T18:46:18.534Z,100806.25
2023-04-27T18:48:44.989Z,100801.09
2023-04-27T18:51:11.429Z,100790.13
2023-04-27T18:53:37.883Z,100792.50
2023-04-27T18:56:06.310Z,100790.16
2023-04-27T18:58:33.461Z,100793.63
2023-04-27T19:00:59.898Z,100794.03
2023-04-27T19:03:26.748Z,100790.31
2023-04-27T19:05:53.541Z,100796.53
2023-04-27T19:08:19.955Z,100795.03
2023-04-27T19:10:46.388Z,100790.13
2023-04-27T19:13:12.838Z,100800.53
2023-04-27T19:15:39.297Z,100806.25
2023-04-27T19:18:10.477Z,100809.41
2023-04-27T19:20:38.583Z,100798.47
2023-04-27T19:23:05.437Z,100795.22
2023-04-27T19:25:31.962Z,100797.63
2023-04-27T19:27:58.641Z,100807.81
2023-04-27T19:30:25.254Z,100800.72
2023-04-27T19:32:52.097Z,100804.94
2023-04-27T19:35:20.184Z,100793.41
2023-04-27T19:37:46.667Z,100799.34
2023-04-27T19:40:13.473Z,100800.56
2023-04-27T19:42:40.085Z,100810.09
2023-04-27T19:45:07.126Z,100800.56
2023-04-27T19:47:33.977Z,100800.94
2023-04-27T19:50:00.532Z,100813.34
2023-04-27T19:52:26.961Z,100809.16
2023-04-27T19:54:54.134Z,100805.28
2023-04-27T19:57:21.529Z,100799.38
2023-04-27T19:59:48.228Z,100806.03
2023-04-27T20:02:14.848Z,100814.56
2023-04-27T20:04:41.748Z,100812.28
2023-04-27T20:07:08.570Z,100812.78
2023-04-27T20:09:35.168Z,100809.38
2023-04-27T20:12:01.982Z,100811.56
2023-04-27T20:14:31.100Z,100817.59
2023-04-27T20:16:57.507Z,100823.59
2023-04-27T20:19:25.045Z,100821.31
2023-04-27T20:21:52.557Z,100812.63
2023-04-27T20:24:19.036Z,100808.03
2023-04-27T20:26:46.402Z,100813.22
2023-04-27T20:29:13.029Z,100808.16
2023-04-27T20:31:39.500Z,100803.09
2023-04-27T20:34:05.970Z,100806.94
2023-04-27T20:36:33.173Z,100804.41
2023-04-27T20:39:03.863Z,100802.34
2023-04-27T20:41:30.479Z,100795.63
2023-04-27T20:43:56.880Z,100801.63
2023-04-27T20:46:23.295Z,100794.06
2023-04-27T20:48:49.752Z,100792.84
2023-04-27T20:51:16.250Z,100786.69
2023-04-27T20:53:42.826Z,100792.31
2023-04-27T20:56:09.609Z,100796.16
2023-04-27T20:58:36.076Z,100793.88
2023-04-27T21:01:02.549Z,100787.50
2023-04-27T21:03:29.160Z,100793.28
2023-04-27T21:05:56.004Z,100802.41
2023-04-27T21:08:22.467Z,100792.66
2023-04-27T21:10:48.893Z,100792.06
2023-04-27T21:13:15.561Z,100793.16
2023-04-27T21:15:41.987Z,100783.41
2023-04-27T21:18:13.430Z,100787.25
2023-04-27T21:20:45.550Z,100787.72
2023-04-27T21:23:14.590Z,100775.19
2023-04-27T21:25:45.390Z,100774.38
2023-04-27T21:28:12.163Z,100767.38
2023-04-27T21:30:39.219Z,100760.97
2023-04-27T21:33:05.918Z,100764.59
2023-04-27T21:35:32.579Z,100757.63
2023-04-27T21:37:59.358Z,100758.47
2023-04-27T21:40:26.138Z,100749.91
2023-04-27T21:42:53.262Z,100749.09
2023-04-27T21:45:20.246Z,100747.41
2023-04-27T21:47:46.945Z,100749.53
2023-04-27T21:50:13.500Z,100747.88
2023-04-27T21:52:39.926Z,100744.50
2023-04-27T21:55:06.575Z,100744.97
2023-04-27T21:57:33.027Z,100740.75
2023-04-27T21:59:59.995Z,100745.44
2023-04-27T22:02:26.684Z,100741.25
2023-04-27T22:04:53.280Z,100735.94
2023-04-27T22:07:19.900Z,100731.47
2023-04-27T22:09:46.327Z,100726.41
2023-04-27T22:12:12.747Z,100724.72
2023-04-27T22:14:39.150Z,100726.06
2023-04-27T22:17:05.533Z,100725.22
2023-04-27T22:19:32.277Z,100731.59
2023-04-27T22:21:58.683Z,100729.66
2023-04-27T22:24:25.066Z,100732.44
2023-04-27T22:26:52.514Z,100721.38
2023-04-27T22:29:18.927Z,100725.22
2023-04-27T22:31:45.686Z,100715.22
2023-04-27T22:34:13.222Z,100712.44
2023-04-27T22:36:39.875Z,100716.31
2023-04-27T22:39:07.155Z,100725.69
2023-04-27T22:41:33.988Z,100718.47
2023-04-27T22:44:00.549Z,100720.63
2023-04-27T22:46:27.096Z,100724.47
2023-04-27T22:48:53.921Z,100721.91
2023-04-27T22:51:21.634Z,100717.25
2023-04-27T22:53:48.643Z,100721.09
2023-04-27T22:56:15.113Z,100719.41
2023-04-27T22:58:41.500Z,100719.41
2023-04-27T23:01:07.975Z,100713.88
2023-04-27T23:03:34.676Z,100714.72
2023-04-27T23:06:01.304Z,100712.56
2023-04-27T23:08:28.847Z,100707.03
2023-04-27T23:10:56.209Z,100698.50
2023-04-27T23:13:26.741Z,100699.34
2023-04-27T23:15:54.334Z,100694.91
2023-04-27T23:18:21.300Z,100690.44
2023-04-27T23:20:52.694Z,100687.44
2023-04-27T23:23:19.126Z,100693.19
2023-04-27T23:25:45.790Z,100691.28
2023-04-27T23:28:12.206Z,100694.03
2023-04-27T23:30:38.703Z,100683.22
2023-04-27T23:33:05.347Z,100675.75
2023-04-27T23:35:31.874Z,100677.69
2023-04-27T23:37:58.461Z,100677.09
2023-04-27T23:40:24.872Z,100663.47
2023-04-27T23:42:51.775Z,100659.06
2023-04-27T23:45:18.517Z,100665.66
2023-04-27T23:47:45.512Z,100663.97
2023-04-27T23:50:11.948Z,100658.44
2023-04-27T23:52:38.379Z,100655.66
2023-04-27T23:55:05.198Z,100654.59
2023-04-27T23:57:31.736Z,100650.75
2023-04-27T23:59:58.122Z,100652.44
